createdAt,value
2022-10-23T00:00:10.663Z,8.52
2022-10-23T00:00:30.660Z,8.54
2022-10-23T00:00:50.758Z,8.55
2022-10-23T00:01:10.715Z,8.52
2022-10-23T00:01:30.765Z,8.54
2022-10-23T00:01:50.821Z,8.55
2022-10-23T00:02:10.909Z,8.52
2022-10-23T00:02:30.958Z,8.55
2022-10-23T00:02:51.084Z,8.54
2022-10-23T00:03:11.025Z,8.55
2022-10-23T00:03:31.101Z,8.54
2022-10-23T00:03:51.157Z,8.52
2022-10-23T00:04:11.210Z,8.54
2022-10-23T00:04:31.278Z,8.49
2022-10-23T00:04:51.348Z,8.51
2022-10-23T00:05:11.411Z,8.47
2022-10-23T00:05:31.477Z,8.48
2022-10-23T00:05:51.562Z,8.48
2022-10-23T00:06:11.619Z,8.48
2022-10-23T00:06:31.650Z,8.51
2022-10-23T00:06:51.722Z,8.48
2022-10-23T00:07:11.776Z,8.49
2022-10-23T00:07:31.836Z,8.47
2022-10-23T00:07:51.882Z,8.48
2022-10-23T00:08:11.943Z,8.47
2022-10-23T00:08:32.003Z,8.45
2022-10-23T00:08:52.057Z,8.45
2022-10-23T00:09:12.132Z,8.45
2022-10-23T00:09:32.164Z,8.45
2022-10-23T00:09:52.229Z,8.44
2022-10-23T00:10:12.275Z,8.42
2022-10-23T00:10:32.357Z,8.38
2022-10-23T00:10:52.423Z,8.42
2022-10-23T00:11:12.478Z,8.4
2022-10-23T00:11:32.538Z,8.4
2022-10-23T00:11:52.597Z,8.41
2022-10-23T00:12:12.632Z,8.4
2022-10-23T00:12:32.715Z,8.38
2022-10-23T00:12:52.769Z,8.4
2022-10-23T00:13:12.824Z,8.38
2022-10-23T00:13:32.882Z,8.38
2022-10-23T00:13:52.932Z,8.38
2022-10-23T00:14:12.991Z,8.41
2022-10-23T00:14:33.040Z,8.37
2022-10-23T00:14:53.101Z,8.37
2022-10-23T00:15:13.154Z,8.35
2022-10-23T00:15:33.211Z,8.34
2022-10-23T00:15:53.298Z,8.37
2022-10-23T00:16:13.353Z,8.37
2022-10-23T00:16:33.390Z,8.35
2022-10-23T00:16:53.448Z,8.37
2022-10-23T00:17:13.514Z,8.37
2022-10-23T00:17:33.563Z,8.37
2022-10-23T00:17:53.625Z,8.38
2022-10-23T00:18:13.675Z,8.38
2022-10-23T00:18:33.733Z,8.4
2022-10-23T00:18:53.782Z,8.4
2022-10-23T00:19:13.847Z,8.4
2022-10-23T00:19:33.903Z,8.38
2022-10-23T00:19:53.953Z,8.4
2022-10-23T00:20:14.008Z,8.37
2022-10-23T00:20:34.071Z,8.34
2022-10-23T00:20:54.126Z,8.33
2022-10-23T00:21:14.177Z,8.35
2022-10-23T00:21:34.226Z,8.33
2022-10-23T00:21:54.269Z,8.33
2022-10-23T00:22:14.339Z,8.33
2022-10-23T00:22:34.385Z,8.31
2022-10-23T00:22:54.480Z,8.31
2022-10-23T00:23:14.539Z,8.3
2022-10-23T00:23:34.600Z,8.31
2022-10-23T00:23:54.672Z,8.3
2022-10-23T00:24:14.715Z,8.3
2022-10-23T00:24:34.783Z,8.3
2022-10-23T00:24:54.830Z,8.3
2022-10-23T00:25:14.884Z,8.3
2022-10-23T00:25:34.946Z,8.28
2022-10-23T00:25:55.004Z,8.27
2022-10-23T00:26:15.054Z,8.3
2022-10-23T00:26:35.123Z,8.28
2022-10-23T00:26:55.192Z,8.28
2022-10-23T00:27:15.254Z,8.27
2022-10-23T00:27:35.293Z,8.3
2022-10-23T00:27:55.326Z,8.28
2022-10-23T00:28:15.411Z,8.25
2022-10-23T00:28:35.496Z,8.27
2022-10-23T00:28:55.537Z,8.27
2022-10-23T00:29:15.626Z,8.27
2022-10-23T00:29:35.695Z,8.28
2022-10-23T00:29:55.743Z,8.27
2022-10-23T00:30:15.814Z,8.24
2022-10-23T00:30:35.863Z,8.27
2022-10-23T00:30:55.920Z,8.27
2022-10-23T00:31:15.967Z,8.28
2022-10-23T00:31:36.021Z,8.3
2022-10-23T00:31:56.089Z,8.3
2022-10-23T00:32:16.132Z,8.28
2022-10-23T00:32:36.211Z,8.27
2022-10-23T00:32:56.253Z,8.25
2022-10-23T00:33:16.306Z,8.27
2022-10-23T00:33:36.360Z,8.28
2022-10-23T00:33:56.411Z,8.27
2022-10-23T00:34:16.476Z,8.31
2022-10-23T00:34:36.530Z,8.31
2022-10-23T00:34:56.593Z,8.34
2022-10-23T00:35:16.646Z,8.33
2022-10-23T00:35:36.707Z,8.38
2022-10-23T00:35:56.752Z,8.34
2022-10-23T00:36:16.813Z,8.38
2022-10-23T00:36:36.880Z,8.41
2022-10-23T00:36:56.919Z,8.42
2022-10-23T00:37:16.984Z,8.41
2022-10-23T00:37:37.021Z,8.44
2022-10-23T00:37:57.076Z,8.44
2022-10-23T00:38:17.148Z,8.45
2022-10-23T00:38:37.214Z,8.49
2022-10-23T00:38:57.269Z,8.55
2022-10-23T00:39:17.319Z,8.63
2022-10-23T00:39:37.387Z,8.72
2022-10-23T00:39:57.437Z,8.73
2022-10-23T00:40:17.477Z,8.75
2022-10-23T00:40:37.550Z,8.75
2022-10-23T00:40:57.596Z,8.76
2022-10-23T00:41:17.662Z,8.75
2022-10-23T00:41:37.736Z,8.72
2022-10-23T00:41:57.788Z,8.73
2022-10-23T00:42:17.846Z,8.72
2022-10-23T00:42:37.899Z,8.71
2022-10-23T00:42:57.961Z,8.69
2022-10-23T00:43:18.005Z,8.71
2022-10-23T00:43:38.065Z,8.69
2022-10-23T00:43:58.147Z,8.68
2022-10-23T00:44:18.191Z,8.66
2022-10-23T00:44:38.251Z,8.68
2022-10-23T00:44:58.321Z,8.66
2022-10-23T00:45:18.396Z,8.66
2022-10-23T00:45:38.470Z,8.66
2022-10-23T00:45:58.514Z,8.63
2022-10-23T00:46:18.589Z,8.62
2022-10-23T00:46:38.639Z,8.62
2022-10-23T00:46:58.686Z,8.65
2022-10-23T00:47:18.739Z,8.65
2022-10-23T00:47:38.809Z,8.68
2022-10-23T00:47:58.863Z,8.66
2022-10-23T00:48:18.914Z,8.66
2022-10-23T00:48:38.978Z,8.69
2022-10-23T00:48:59.137Z,8.66
2022-10-23T00:49:19.093Z,8.62
2022-10-23T00:49:41.999Z,8.62
2022-10-23T00:49:59.199Z,8.65
2022-10-23T00:50:19.277Z,8.63
2022-10-23T00:50:39.324Z,8.63
2022-10-23T00:50:59.355Z,8.65
2022-10-23T00:51:19.451Z,8.69
2022-10-23T00:51:39.521Z,8.71
2022-10-23T00:51:59.578Z,8.73
2022-10-23T00:52:19.633Z,8.79
2022-10-23T00:52:39.883Z,8.76
2022-10-23T00:52:59.748Z,8.79
2022-10-23T00:53:19.810Z,8.78
2022-10-23T00:53:39.868Z,8.79
2022-10-23T00:54:06.515Z,8.78
2022-10-23T00:54:23.900Z,8.79
2022-10-23T00:54:40.024Z,8.8
2022-10-23T00:55:00.086Z,8.79
2022-10-23T00:55:20.161Z,8.8
2022-10-23T00:55:40.206Z,8.83
2022-10-23T00:56:00.286Z,8.84
2022-10-23T00:56:20.312Z,8.84
2022-10-23T00:56:40.379Z,8.86
2022-10-23T00:57:00.425Z,8.87
2022-10-23T00:57:20.521Z,8.89
2022-10-23T00:57:40.531Z,8.87
2022-10-23T00:58:00.588Z,8.86
2022-10-23T00:58:20.648Z,8.86
2022-10-23T00:58:40.701Z,8.87
2022-10-23T00:59:00.759Z,8.86
2022-10-23T00:59:20.814Z,8.87
2022-10-23T00:59:40.877Z,8.87
2022-10-23T01:00:00.922Z,8.89
2022-10-23T01:00:20.975Z,8.89
2022-10-23T01:00:41.034Z,8.86
2022-10-23T01:01:01.124Z,8.86
2022-10-23T01:01:21.209Z,8.87
2022-10-23T01:01:41.337Z,8.84
2022-10-23T01:02:01.426Z,8.86
2022-10-23T01:02:21.435Z,8.86
2022-10-23T01:02:41.686Z,8.83
2022-10-23T01:03:01.425Z,8.82
2022-10-23T01:03:21.488Z,8.82
2022-10-23T01:03:41.544Z,8.83
2022-10-23T01:04:01.584Z,8.82
2022-10-23T01:04:21.638Z,8.76
2022-10-23T01:04:41.723Z,8.78
2022-10-23T01:05:01.774Z,8.79
2022-10-23T01:05:21.830Z,8.78
2022-10-23T01:05:41.913Z,8.78
2022-10-23T01:06:01.915Z,8.76
2022-10-23T01:06:21.996Z,8.75
2022-10-23T01:06:42.063Z,8.76
2022-10-23T01:07:02.111Z,8.75
2022-10-23T01:07:22.180Z,8.73
2022-10-23T01:07:42.516Z,8.73
2022-10-23T01:08:02.296Z,8.73
2022-10-23T01:08:22.372Z,8.72
2022-10-23T01:08:42.544Z,8.73
2022-10-23T01:09:02.485Z,8.73
2022-10-23T01:09:22.539Z,8.75
2022-10-23T01:09:42.597Z,8.76
2022-10-23T01:10:02.659Z,8.78
2022-10-23T01:10:22.704Z,8.8
2022-10-23T01:10:42.765Z,8.82
2022-10-23T01:11:02.827Z,8.82
2022-10-23T01:11:22.876Z,8.84
2022-10-23T01:11:42.931Z,8.82
2022-10-23T01:12:02.993Z,8.84
2022-10-23T01:12:23.033Z,8.82
2022-10-23T01:12:43.091Z,8.8
2022-10-23T01:13:03.154Z,8.8
2022-10-23T01:13:23.215Z,8.79
2022-10-23T01:13:43.261Z,8.79
2022-10-23T01:14:23.376Z,8.73
2022-10-23T01:14:43.429Z,8.78
2022-10-23T01:15:03.502Z,8.76
2022-10-23T01:15:23.547Z,8.76
2022-10-23T01:15:43.607Z,8.76
2022-10-23T01:16:03.666Z,8.78
2022-10-23T01:16:23.722Z,8.78
2022-10-23T01:16:43.770Z,8.78
2022-10-23T01:17:03.828Z,8.78
2022-10-23T01:17:23.886Z,8.79
2022-10-23T01:17:44.730Z,8.73
2022-10-23T01:18:03.991Z,8.75
2022-10-23T01:18:24.054Z,8.75
2022-10-23T01:18:44.129Z,8.75
2022-10-23T01:19:04.166Z,8.75
2022-10-23T01:19:24.209Z,8.73
2022-10-23T01:19:44.274Z,8.72
2022-10-23T01:20:04.318Z,8.73
2022-10-23T01:20:24.388Z,8.72
2022-10-23T01:20:44.449Z,8.71
2022-10-23T01:21:04.506Z,8.72
2022-10-23T01:21:24.556Z,8.71
2022-10-23T01:21:44.615Z,8.72
2022-10-23T01:22:04.668Z,8.71
2022-10-23T01:22:44.916Z,8.69
2022-10-23T01:23:04.837Z,8.71
2022-10-23T01:23:24.892Z,8.71
2022-10-23T01:23:44.953Z,8.71
2022-10-23T01:24:05.000Z,8.73
2022-10-23T01:24:25.061Z,8.72
2022-10-23T01:24:45.112Z,8.72
2022-10-23T01:25:05.175Z,8.72
2022-10-23T01:25:25.220Z,8.71
2022-10-23T01:25:45.269Z,8.71
2022-10-23T01:26:05.360Z,8.72
2022-10-23T01:26:25.423Z,8.73
2022-10-23T01:26:45.485Z,8.72
2022-10-23T01:27:05.548Z,8.72
2022-10-23T01:27:25.597Z,8.69
2022-10-23T01:27:45.665Z,8.69
2022-10-23T01:28:05.724Z,8.69
2022-10-23T01:28:25.781Z,8.66
2022-10-23T01:28:45.834Z,8.71
2022-10-23T01:29:05.889Z,8.69
2022-10-23T01:29:25.951Z,8.69
2022-10-23T01:29:46.002Z,8.69
2022-10-23T01:30:06.087Z,8.71
2022-10-23T01:30:26.117Z,8.73
2022-10-23T01:30:46.173Z,8.76
2022-10-23T01:31:06.237Z,8.75
2022-10-23T01:31:26.314Z,8.76
2022-10-23T01:31:46.346Z,8.78
2022-10-23T01:32:06.415Z,8.82
2022-10-23T01:32:26.486Z,8.82
2022-10-23T01:32:46.556Z,8.84
2022-10-23T01:33:06.612Z,8.86
2022-10-23T01:33:26.689Z,8.84
2022-10-23T01:33:46.729Z,8.86
2022-10-23T01:34:06.775Z,8.89
2022-10-23T01:34:26.830Z,8.87
2022-10-23T01:34:46.871Z,8.86
2022-10-23T01:35:06.951Z,8.86
2022-10-23T01:35:27.005Z,8.89
2022-10-23T01:35:47.061Z,8.89
2022-10-23T01:36:07.132Z,8.89
2022-10-23T01:36:27.180Z,8.9
2022-10-23T01:36:47.248Z,8.9
2022-10-23T01:37:07.309Z,8.89
2022-10-23T01:37:27.368Z,8.9
2022-10-23T01:37:47.416Z,8.9
2022-10-23T01:38:07.485Z,8.92
2022-10-23T01:38:27.526Z,8.9
2022-10-23T01:38:47.583Z,8.89
2022-10-23T01:39:07.650Z,8.92
2022-10-23T01:39:27.700Z,8.92
2022-10-23T01:39:47.759Z,8.9
2022-10-23T01:40:07.808Z,8.93
2022-10-23T01:40:27.865Z,8.94
2022-10-23T01:40:47.921Z,8.94
2022-10-23T01:41:07.986Z,8.94
2022-10-23T01:41:28.023Z,8.96
2022-10-23T01:41:48.094Z,8.96
2022-10-23T01:42:08.149Z,8.94
2022-10-23T01:42:28.226Z,8.92
2022-10-23T01:42:48.290Z,8.93
2022-10-23T01:43:08.323Z,8.9
2022-10-23T01:43:28.408Z,8.9
2022-10-23T01:43:48.444Z,8.94
2022-10-23T01:44:08.511Z,8.9
2022-10-23T01:44:28.576Z,8.9
2022-10-23T01:44:48.660Z,8.89
2022-10-23T01:45:08.728Z,8.9
2022-10-23T01:45:28.777Z,8.87
2022-10-23T01:45:48.846Z,8.89
2022-10-23T01:46:08.892Z,8.86
2022-10-23T01:46:28.949Z,8.83
2022-10-23T01:46:49.007Z,8.82
2022-10-23T01:47:09.129Z,8.84
2022-10-23T01:47:29.119Z,8.82
2022-10-23T01:47:49.186Z,8.79
2022-10-23T01:48:09.229Z,8.79
2022-10-23T01:48:29.274Z,8.82
2022-10-23T01:48:49.346Z,8.79
2022-10-23T01:49:09.418Z,8.76
2022-10-23T01:49:29.477Z,8.76
2022-10-23T01:49:49.529Z,8.8
2022-10-23T01:50:09.587Z,8.8
2022-10-23T01:50:29.648Z,8.79
2022-10-23T01:50:49.704Z,8.8
2022-10-23T01:51:09.756Z,8.78
2022-10-23T01:51:29.823Z,8.78
2022-10-23T01:51:49.872Z,8.75
2022-10-23T01:52:09.920Z,8.72
2022-10-23T01:52:29.979Z,8.71
2022-10-23T01:52:50.035Z,8.69
2022-10-23T01:53:10.096Z,8.69
2022-10-23T01:53:30.150Z,8.68
2022-10-23T01:53:50.207Z,8.71
2022-10-23T01:54:10.248Z,8.71
2022-10-23T01:54:30.324Z,8.69
2022-10-23T01:54:50.425Z,8.71
2022-10-23T01:55:10.490Z,8.69
2022-10-23T01:55:30.578Z,8.66
2022-10-23T01:55:50.618Z,8.65
2022-10-23T01:56:10.659Z,8.62
2022-10-23T01:56:30.725Z,8.63
2022-10-23T01:56:50.778Z,8.61
2022-10-23T01:57:10.838Z,8.58
2022-10-23T01:57:30.897Z,8.56
2022-10-23T01:57:50.952Z,8.55
2022-10-23T01:58:11.010Z,8.54
2022-10-23T01:58:31.080Z,8.54
2022-10-23T01:58:51.129Z,8.51
2022-10-23T01:59:11.173Z,8.48
2022-10-23T01:59:31.237Z,8.47
2022-10-23T01:59:51.291Z,8.47
2022-10-23T02:00:11.345Z,8.4
2022-10-23T02:00:31.405Z,8.4
2022-10-23T02:00:51.461Z,8.37
2022-10-23T02:01:11.678Z,8.37
2022-10-23T02:01:31.676Z,8.37
2022-10-23T02:02:54.876Z,8.34
2022-10-23T02:03:11.858Z,8.3
2022-10-23T02:03:31.918Z,8.31
2022-10-23T02:03:52.030Z,8.27
2022-10-23T02:04:12.033Z,8.25
2022-10-23T02:04:32.086Z,8.25
2022-10-23T02:04:52.138Z,8.25
2022-10-23T02:05:12.192Z,8.21
2022-10-23T02:05:32.244Z,8.21
2022-10-23T02:05:52.308Z,8.24
2022-10-23T02:06:12.368Z,8.21
2022-10-23T02:06:32.425Z,8.2
2022-10-23T02:06:52.478Z,8.2
2022-10-23T02:07:12.527Z,8.2
2022-10-23T02:07:32.606Z,8.17
2022-10-23T02:07:52.643Z,8.15
2022-10-23T02:08:12.692Z,8.15
2022-10-23T02:08:32.753Z,8.14
2022-10-23T02:08:52.805Z,8.11
2022-10-23T02:09:12.861Z,8.13
2022-10-23T02:09:32.918Z,8.1
2022-10-23T02:09:52.978Z,8.1
2022-10-23T02:10:13.030Z,8.08
2022-10-23T02:10:33.096Z,8.08
2022-10-23T02:10:53.149Z,8.07
2022-10-23T02:11:13.195Z,8.04
2022-10-23T02:11:33.264Z,8.03
2022-10-23T02:11:53.312Z,8.05
2022-10-23T02:12:13.378Z,8.01
2022-10-23T02:12:33.439Z,8
2022-10-23T02:14:08.741Z,7.94
2022-10-23T02:14:13.734Z,7.96
2022-10-23T02:14:33.791Z,7.92
2022-10-23T02:14:53.852Z,7.9
2022-10-23T02:15:13.903Z,7.9
2022-10-23T02:15:33.964Z,7.9
2022-10-23T02:15:54.038Z,7.9
2022-10-23T02:16:14.066Z,7.87
2022-10-23T02:16:34.131Z,7.87
2022-10-23T02:16:54.193Z,7.86
2022-10-23T02:17:14.249Z,7.87
2022-10-23T02:17:34.295Z,7.82
2022-10-23T02:17:54.340Z,7.86
2022-10-23T02:18:14.434Z,7.87
2022-10-23T02:18:34.475Z,7.83
2022-10-23T02:18:54.529Z,7.83
2022-10-23T02:19:14.585Z,7.82
2022-10-23T02:19:34.644Z,7.83
2022-10-23T02:19:54.698Z,7.79
2022-10-23T02:20:14.754Z,7.82
2022-10-23T02:20:34.868Z,7.8
2022-10-23T02:20:54.875Z,7.77
2022-10-23T02:21:14.913Z,7.79
2022-10-23T02:21:34.978Z,7.77
2022-10-23T02:21:55.051Z,7.75
2022-10-23T02:22:15.132Z,7.75
2022-10-23T02:22:35.200Z,7.72
2022-10-23T02:22:55.278Z,7.72
2022-10-23T02:23:15.359Z,7.7
2022-10-23T02:23:35.440Z,7.7
2022-10-23T02:23:56.294Z,7.69
2022-10-23T02:24:15.539Z,7.69
2022-10-23T02:24:35.587Z,7.69
2022-10-23T02:24:55.642Z,7.67
2022-10-23T02:25:15.720Z,7.67
2022-10-23T02:25:35.809Z,7.66
2022-10-23T02:25:55.893Z,7.65
2022-10-23T02:26:15.956Z,7.67
2022-10-23T02:26:36.035Z,7.63
2022-10-23T02:26:56.093Z,7.65
2022-10-23T02:27:16.161Z,7.63
2022-10-23T02:27:36.254Z,7.63
2022-10-23T02:27:56.342Z,7.63
2022-10-23T02:28:16.449Z,7.63
2022-10-23T02:28:36.510Z,7.65
2022-10-23T02:28:56.618Z,7.63
2022-10-23T02:29:16.648Z,7.59
2022-10-23T02:29:36.717Z,7.58
2022-10-23T02:29:56.768Z,7.58
2022-10-23T02:30:16.892Z,7.56
2022-10-23T02:30:36.952Z,7.55
2022-10-23T02:30:57.030Z,7.52
2022-10-23T02:31:17.125Z,7.52
2022-10-23T02:31:37.170Z,7.52
2022-10-23T02:31:57.301Z,7.54
2022-10-23T02:32:17.304Z,7.49
2022-10-23T02:32:37.396Z,7.52
2022-10-23T02:32:57.473Z,7.49
2022-10-23T02:33:17.560Z,7.48
2022-10-23T02:33:37.631Z,7.48
2022-10-23T02:33:57.737Z,7.48
2022-10-23T02:34:17.792Z,7.46
2022-10-23T02:34:37.867Z,7.46
2022-10-23T02:34:57.994Z,7.48
2022-10-23T02:35:18.046Z,7.44
2022-10-23T02:35:38.149Z,7.45
2022-10-23T02:35:58.196Z,7.42
2022-10-23T02:36:18.278Z,7.42
2022-10-23T02:36:38.379Z,7.39
2022-10-23T02:36:58.426Z,7.41
2022-10-23T02:37:18.583Z,7.39
2022-10-23T02:37:38.575Z,7.36
2022-10-23T02:37:58.659Z,7.38
2022-10-23T02:38:18.705Z,7.35
2022-10-23T02:38:38.797Z,7.35
2022-10-23T02:38:58.889Z,7.35
2022-10-23T02:39:18.969Z,7.34
2022-10-23T02:39:39.033Z,7.34
2022-10-23T02:39:59.149Z,7.35
2022-10-23T02:40:19.231Z,7.35
2022-10-23T02:40:39.317Z,7.34
2022-10-23T02:40:59.425Z,7.29
2022-10-23T02:41:19.454Z,7.32
2022-10-23T02:41:39.531Z,7.31
2022-10-23T02:41:59.618Z,7.29
2022-10-23T02:42:19.694Z,7.31
2022-10-23T02:42:39.761Z,7.31
2022-10-23T02:42:59.835Z,7.31
2022-10-23T02:43:19.890Z,7.29
2022-10-23T02:43:40.000Z,7.29
2022-10-23T02:44:00.073Z,7.29
2022-10-23T02:44:20.135Z,7.29
2022-10-23T02:44:40.180Z,7.28
2022-10-23T02:45:00.245Z,7.31
2022-10-23T02:45:20.342Z,7.31
2022-10-23T02:46:00.451Z,7.28
2022-10-23T02:46:20.505Z,7.29
2022-10-23T02:46:40.573Z,7.25
2022-10-23T02:47:00.649Z,7.24
2022-10-23T02:47:20.736Z,7.25
2022-10-23T02:47:41.147Z,7.21
2022-10-23T02:48:00.936Z,7.22
2022-10-23T02:48:21.002Z,7.19
2022-10-23T02:48:41.157Z,7.18
2022-10-23T02:49:01.136Z,7.19
2022-10-23T02:49:21.207Z,7.19
2022-10-23T02:49:41.274Z,7.21
2022-10-23T02:50:01.326Z,7.19
2022-10-23T02:50:21.416Z,7.17
2022-10-23T02:50:41.476Z,7.18
2022-10-23T02:51:01.525Z,7.17
2022-10-23T02:51:21.590Z,7.17
2022-10-23T02:51:41.678Z,7.15
2022-10-23T02:52:01.752Z,7.14
2022-10-23T02:52:21.818Z,7.12
2022-10-23T02:52:41.897Z,7.14
2022-10-23T02:53:01.995Z,7.11
2022-10-23T02:53:22.085Z,7.1
2022-10-23T02:53:42.147Z,7.11
2022-10-23T02:54:02.217Z,7.1
2022-10-23T02:54:22.291Z,7.08
2022-10-23T02:54:42.344Z,7.11
2022-10-23T02:55:02.419Z,7.08
2022-10-23T02:55:22.497Z,7.08
2022-10-23T02:55:42.573Z,7.08
2022-10-23T02:56:02.673Z,7.08
2022-10-23T02:56:22.750Z,7.06
2022-10-23T02:56:42.824Z,7.08
2022-10-23T02:57:02.904Z,7.04
2022-10-23T02:57:22.990Z,7.03
2022-10-23T02:57:43.441Z,7.06
2022-10-23T02:58:03.136Z,7.04
2022-10-23T02:58:23.213Z,7.01
2022-10-23T02:58:43.306Z,7.03
2022-10-23T02:59:03.365Z,7.03
2022-10-23T02:59:23.422Z,7.03
2022-10-23T02:59:43.485Z,7.01
2022-10-23T03:00:03.533Z,7.01
2022-10-23T03:00:23.597Z,7.01
2022-10-23T03:00:43.654Z,7.01
2022-10-23T03:01:03.759Z,7.03
2022-10-23T03:01:23.898Z,7
2022-10-23T03:01:43.954Z,7
2022-10-23T03:02:04.078Z,7.01
2022-10-23T03:02:24.246Z,7.03
2022-10-23T03:02:43.989Z,7.01
2022-10-23T03:03:04.035Z,6.98
2022-10-23T03:03:24.104Z,7.03
2022-10-23T03:03:44.151Z,7.01
2022-10-23T03:04:04.195Z,7.03
2022-10-23T03:04:24.260Z,7.03
2022-10-23T03:04:44.321Z,7.06
2022-10-23T03:05:04.393Z,7.08
2022-10-23T03:05:24.478Z,7.08
2022-10-23T03:05:44.515Z,7.11
2022-10-23T03:06:04.564Z,7.14
2022-10-23T03:06:24.634Z,7.17
2022-10-23T03:06:44.689Z,7.15
2022-10-23T03:07:04.752Z,7.21
2022-10-23T03:07:24.805Z,7.22
2022-10-23T03:07:45.087Z,7.22
2022-10-23T03:08:04.924Z,7.25
2022-10-23T03:08:24.988Z,7.25
2022-10-23T03:08:45.040Z,7.27
2022-10-23T03:09:05.084Z,7.24
2022-10-23T03:09:25.155Z,7.24
2022-10-23T03:09:45.213Z,7.27
2022-10-23T03:10:05.281Z,7.28
2022-10-23T03:10:25.356Z,7.25
2022-10-23T03:10:45.460Z,7.29
2022-10-23T03:11:05.469Z,7.25
2022-10-23T03:11:25.527Z,7.29
2022-10-23T03:11:45.589Z,7.31
2022-10-23T03:12:05.648Z,7.32
2022-10-23T03:12:25.711Z,7.35
2022-10-23T03:12:45.950Z,7.38
2022-10-23T03:13:05.838Z,7.38
2022-10-23T03:13:25.928Z,7.44
2022-10-23T03:13:45.967Z,7.46
2022-10-23T03:14:06.017Z,7.51
2022-10-23T03:14:26.058Z,7.52
2022-10-23T03:14:46.151Z,7.52
2022-10-23T03:15:06.246Z,7.52
2022-10-23T03:15:26.280Z,7.56
2022-10-23T03:15:46.377Z,7.59
2022-10-23T03:16:06.429Z,7.63
2022-10-23T03:16:26.493Z,7.66
2022-10-23T03:16:46.556Z,7.69
2022-10-23T03:17:06.619Z,7.75
2022-10-23T03:17:26.669Z,7.72
2022-10-23T03:17:46.729Z,7.72
2022-10-23T03:18:06.777Z,7.72
2022-10-23T03:18:26.830Z,7.73
2022-10-23T03:18:46.886Z,7.76
2022-10-23T03:19:06.995Z,7.76
2022-10-23T03:19:27.008Z,7.77
2022-10-23T03:19:47.065Z,7.83
2022-10-23T03:20:07.110Z,7.85
2022-10-23T03:20:27.164Z,7.85
2022-10-23T03:20:47.229Z,7.83
2022-10-23T03:21:07.296Z,7.86
2022-10-23T03:21:27.371Z,7.85
2022-10-23T03:21:47.421Z,7.85
2022-10-23T03:22:07.498Z,7.83
2022-10-23T03:22:27.535Z,7.85
2022-10-23T03:22:47.590Z,7.86
2022-10-23T03:23:07.680Z,7.86
2022-10-23T03:23:27.735Z,7.9
2022-10-23T03:23:47.803Z,7.93
2022-10-23T03:24:07.862Z,7.96
2022-10-23T03:24:27.916Z,7.97
2022-10-23T03:24:47.973Z,7.98
2022-10-23T03:25:08.031Z,7.98
2022-10-23T03:25:28.095Z,8.01
2022-10-23T03:25:48.140Z,8.03
2022-10-23T03:26:08.201Z,8.03
2022-10-23T03:26:28.259Z,8.04
2022-10-23T03:26:48.320Z,8.07
2022-10-23T03:27:08.372Z,8.05
2022-10-23T03:27:48.492Z,8.08
2022-10-23T03:28:08.535Z,8.1
2022-10-23T03:28:28.574Z,8.1
2022-10-23T03:28:48.645Z,8.08
2022-10-23T03:29:08.700Z,8.11
2022-10-23T03:29:28.759Z,8.1
2022-10-23T03:29:48.790Z,8.1
2022-10-23T03:30:08.846Z,8.1
2022-10-23T03:30:28.927Z,8.11
2022-10-23T03:30:48.996Z,8.11
2022-10-23T03:31:09.043Z,8.1
2022-10-23T03:31:29.098Z,8.1
2022-10-23T03:31:49.148Z,8.13
2022-10-23T03:32:09.213Z,8.14
2022-10-23T03:32:29.268Z,8.13
2022-10-23T03:32:49.318Z,8.17
2022-10-23T03:33:09.389Z,8.17
2022-10-23T03:33:29.432Z,8.21
2022-10-23T03:33:49.489Z,8.2
2022-10-23T03:34:09.550Z,8.21
2022-10-23T03:34:29.594Z,8.24
2022-10-23T03:34:49.659Z,8.21
2022-10-23T03:35:09.717Z,8.24
2022-10-23T03:35:29.780Z,8.21
2022-10-23T03:35:49.841Z,8.24
2022-10-23T03:36:09.886Z,8.25
2022-10-23T03:36:29.951Z,8.24
2022-10-23T03:36:49.999Z,8.24
2022-10-23T03:37:10.051Z,8.27
2022-10-23T03:37:30.113Z,8.25
2022-10-23T03:37:50.175Z,8.25
2022-10-23T03:38:10.229Z,8.3
2022-10-23T03:38:30.293Z,8.28
2022-10-23T03:38:50.351Z,8.25
2022-10-23T03:39:10.415Z,8.3
2022-10-23T03:39:30.467Z,8.3
2022-10-23T03:39:50.517Z,8.31
2022-10-23T03:40:10.610Z,8.28
2022-10-23T03:40:30.666Z,8.3
2022-10-23T03:40:50.704Z,8.3
2022-10-23T03:41:10.763Z,8.27
2022-10-23T03:41:30.836Z,8.28
2022-10-23T03:41:50.890Z,8.28
2022-10-23T03:42:10.938Z,8.3
2022-10-23T03:42:30.999Z,8.3
2022-10-23T03:42:51.063Z,8.27
2022-10-23T03:43:11.103Z,8.28
2022-10-23T03:43:31.155Z,8.28
2022-10-23T03:43:51.266Z,8.28
2022-10-23T03:44:11.252Z,8.27
2022-10-23T03:44:31.296Z,8.25
2022-10-23T03:44:51.373Z,8.27
2022-10-23T03:45:11.453Z,8.28
2022-10-23T03:45:31.545Z,8.28
2022-10-23T03:45:51.610Z,8.28
2022-10-23T03:46:11.655Z,8.27
2022-10-23T03:46:31.720Z,8.27
2022-10-23T03:46:51.773Z,8.25
2022-10-23T03:47:11.837Z,8.24
2022-10-23T03:47:31.892Z,8.24
2022-10-23T03:47:51.950Z,8.24
2022-10-23T03:48:11.981Z,8.21
2022-10-23T03:48:32.066Z,8.21
2022-10-23T03:48:52.125Z,8.21
2022-10-23T03:49:12.171Z,8.2
2022-10-23T03:49:32.227Z,8.2
2022-10-23T03:49:52.276Z,8.21
2022-10-23T03:50:12.336Z,8.18
2022-10-23T03:50:32.394Z,8.2
2022-10-23T03:50:52.454Z,8.2
2022-10-23T03:51:12.516Z,8.17
2022-10-23T03:51:32.571Z,8.18
2022-10-23T03:51:52.626Z,8.18
2022-10-23T03:52:12.747Z,8.17
2022-10-23T03:52:32.761Z,8.15
2022-10-23T03:52:52.800Z,8.17
2022-10-23T03:53:12.848Z,8.15
2022-10-23T03:53:32.915Z,8.17
2022-10-23T03:53:52.962Z,8.17
2022-10-23T03:54:13.025Z,8.18
2022-10-23T03:54:33.067Z,8.2
2022-10-23T03:54:53.114Z,8.18
2022-10-23T03:55:13.185Z,8.18
2022-10-23T03:55:33.248Z,8.21
2022-10-23T03:55:53.303Z,8.2
2022-10-23T03:56:13.350Z,8.2
2022-10-23T03:56:33.409Z,8.2
2022-10-23T03:56:56.558Z,8.2
2022-10-23T03:57:13.532Z,8.18
2022-10-23T03:57:33.579Z,8.2
2022-10-23T03:57:53.613Z,8.2
2022-10-23T03:58:13.701Z,8.21
2022-10-23T03:58:33.763Z,8.25
2022-10-23T03:58:53.840Z,8.24
2022-10-23T03:59:13.913Z,8.27
2022-10-23T03:59:33.963Z,8.27
2022-10-23T03:59:54.042Z,8.25
2022-10-23T04:00:14.073Z,8.27
2022-10-23T04:00:34.190Z,8.28
2022-10-23T04:00:54.168Z,8.31
2022-10-23T04:01:14.293Z,8.34
2022-10-23T04:01:34.358Z,8.28
2022-10-23T04:01:54.446Z,8.35
2022-10-23T04:02:14.510Z,8.31
2022-10-23T04:02:34.559Z,8.34
2022-10-23T04:02:54.520Z,8.35
2022-10-23T04:03:14.573Z,8.35
2022-10-23T04:03:34.622Z,8.35
2022-10-23T04:03:54.676Z,8.34
2022-10-23T04:04:14.746Z,8.35
2022-10-23T04:04:34.805Z,8.34
2022-10-23T04:04:54.864Z,8.37
2022-10-23T04:05:14.905Z,8.35
2022-10-23T04:05:34.972Z,8.35
2022-10-23T04:05:55.036Z,8.34
2022-10-23T04:06:15.092Z,8.35
2022-10-23T04:06:35.146Z,8.38
2022-10-23T04:06:55.199Z,8.35
2022-10-23T04:07:15.253Z,8.35
2022-10-23T04:07:35.310Z,8.38
2022-10-23T04:07:55.381Z,8.35
2022-10-23T04:08:19.173Z,8.37
2022-10-23T04:08:35.527Z,8.37
2022-10-23T04:08:55.580Z,8.37
2022-10-23T04:09:15.639Z,8.34
2022-10-23T04:09:35.692Z,8.34
2022-10-23T04:09:55.757Z,8.35
2022-10-23T04:10:15.800Z,8.37
2022-10-23T04:10:35.856Z,8.38
2022-10-23T04:10:55.916Z,8.35
2022-10-23T04:11:15.962Z,8.35
2022-10-23T04:11:36.006Z,8.37
2022-10-23T04:11:56.056Z,8.35
2022-10-23T04:12:16.136Z,8.37
2022-10-23T04:12:36.194Z,8.34
2022-10-23T04:12:56.247Z,8.37
2022-10-23T04:13:16.324Z,8.37
2022-10-23T04:13:36.377Z,8.37
2022-10-23T04:13:56.431Z,8.37
2022-10-23T04:14:16.501Z,8.33
2022-10-23T04:14:36.556Z,8.34
2022-10-23T04:14:56.607Z,8.34
2022-10-23T04:15:16.679Z,8.34
2022-10-23T04:15:36.735Z,8.33
2022-10-23T04:15:56.789Z,8.31
2022-10-23T04:16:16.850Z,8.31
2022-10-23T04:16:36.897Z,8.31
2022-10-23T04:16:56.930Z,8.3
2022-10-23T04:17:17.050Z,8.28
2022-10-23T04:17:37.078Z,8.3
2022-10-23T04:17:57.137Z,8.31
2022-10-23T04:18:17.186Z,8.33
2022-10-23T04:18:37.234Z,8.3
2022-10-23T04:18:57.299Z,8.3
2022-10-23T04:19:17.369Z,8.3
2022-10-23T04:19:37.409Z,8.28
2022-10-23T04:19:57.451Z,8.28
2022-10-23T04:20:17.487Z,8.3
2022-10-23T04:20:37.583Z,8.27
2022-10-23T04:20:57.646Z,8.24
2022-10-23T04:21:17.690Z,8.24
2022-10-23T04:21:37.776Z,8.24
2022-10-23T04:21:57.793Z,8.24
2022-10-23T04:22:17.879Z,8.2
2022-10-23T04:22:37.908Z,8.2
2022-10-23T04:22:57.982Z,8.2
2022-10-23T04:23:18.024Z,8.2
2022-10-23T04:23:38.087Z,8.18
2022-10-23T04:23:58.136Z,8.15
2022-10-23T04:24:18.191Z,8.2
2022-10-23T04:24:38.240Z,8.18
2022-10-23T04:24:58.299Z,8.18
2022-10-23T04:25:18.367Z,8.2
2022-10-23T04:25:38.490Z,8.2
2022-10-23T04:25:58.513Z,8.18
2022-10-23T04:26:18.570Z,8.15
2022-10-23T04:26:38.634Z,8.15
2022-10-23T04:26:58.686Z,8.14
2022-10-23T04:27:18.742Z,8.17
2022-10-23T04:27:38.802Z,8.17
2022-10-23T04:27:58.854Z,8.17
2022-10-23T04:28:18.905Z,8.15
2022-10-23T04:28:38.950Z,8.17
2022-10-23T04:28:59.009Z,8.15
2022-10-23T04:29:19.082Z,8.15
2022-10-23T04:29:39.113Z,8.14
2022-10-23T04:29:59.315Z,8.15
2022-10-23T04:30:19.223Z,8.11
2022-10-23T04:30:39.305Z,8.11
2022-10-23T04:30:59.361Z,8.13
2022-10-23T04:31:19.419Z,8.13